Time;durP1;ratioP1;P1;durP2;ratioP2;P2;SDS_P1;SDS_P2;PMS_P1;PMS_P2;Temp;Humidity;BMP_temperature;BMP_pressure;BME280_temperature;BME280_humidity;BME280_pressure;Samples;Min_cycle;Max_cycle;Signal;HPM_P1;HPM_P2
2022/09/22 00:01:25;;;;;;;7.32;3.58;;;;;;;7.44;100.00;99191.63;4500873;31;20084;-78
2022/09/22 00:03:55;;;;;;;5.22;3.03;;;;;;;7.49;100.00;99191.28;4500489;31;20147;-79
2022/09/22 00:06:28;;;;;;;6.68;3.80;;;;;;;7.44;100.00;99196.81;4497971;31;20120;-79
2022/09/22 00:09:00;;;;;;;6.62;3.62;;;;;;;7.45;100.00;99193.28;4484622;31;20635;-78
2022/09/22 00:11:35;;;;;;;6.32;3.33;;;;;;;7.46;100.00;99192.31;4484651;31;20140;-79
2022/09/22 00:14:08;;;;;;;6.97;3.92;;;;;;;7.41;100.00;99184.81;4484800;31;20111;-79
2022/09/22 00:16:52;;;;;;;5.45;3.33;;;;;;;7.36;100.00;99189.53;4484701;31;20076;-78
2022/09/22 00:19:23;;;;;;;;;;;;;;;7.41;100.00;99186.63;4484790;31;20508;-78
2022/09/22 00:21:51;;;;;;;6.87;3.40;;;;;;;7.44;100.00;99181.19;4484709;32;19990;-78
2022/09/22 00:24:21;;;;;;;6.43;3.53;;;;;;;7.44;100.00;99186.41;4484201;31;20112;-79
2022/09/22 00:26:49;;;;;;;8.10;3.67;;;;;;;7.42;100.00;99188.28;4484396;31;20112;-78
2022/09/22 00:29:16;;;;;;;6.87;3.30;;;;;;;7.40;100.00;99183.19;4484412;31;20537;-78
2022/09/22 00:31:44;;;;;;;7.75;3.72;;;;;;;7.43;100.00;99185.56;4484620;31;20101;-79
2022/09/22 00:34:20;;;;;;;5.70;3.22;;;;;;;7.39;100.00;99183.28;4484324;31;20097;-78
2022/09/22 00:36:47;;;;;;;5.82;3.65;;;;;;;7.38;100.00;99184.22;4484122;31;20468;-79
2022/09/22 00:39:16;;;;;;;8.15;3.42;;;;;;;7.39;100.00;99184.13;4484177;31;20120;-79
2022/09/22 00:41:46;;;;;;;10.57;3.65;;;;;;;7.41;100.00;99181.41;4495370;31;20175;-79
2022/09/22 00:44:25;;;;;;;4.45;2.87;;;;;;;7.39;100.00;99183.28;4501092;31;20088;-79
2022/09/22 00:47:17;;;;;;;4.32;3.03;;;;;;;7.41;100.00;99184.81;4502046;31;20148;-79
2022/09/22 00:49:47;;;;;;;5.45;3.03;;;;;;;7.44;100.00;99181.19;4501070;31;20118;-79
2022/09/22 00:52:19;;;;;;;5.00;2.87;;;;;;;7.45;100.00;99177.66;4502004;31;20119;-78
2022/09/22 00:54:46;;;;;;;4.87;2.75;;;;;;;7.47;100.00;99170.53;4502075;31;20083;-78
2022/09/22 00:57:18;;;;;;;4.85;2.90;;;;;;;7.44;100.00;99175.97;4501983;31;20122;-78
2022/09/22 00:59:47;;;;;;;6.53;2.72;;;;;;;7.47;100.00;99171.38;4501895;31;20091;-79
2022/09/22 01:02:14;;;;;;;5.53;3.12;;;;;;;7.47;100.00;99165.31;4500599;31;20358;-79
2022/09/22 01:04:41;;;;;;;6.65;2.92;;;;;;;7.53;100.00;99174.50;4501781;31;20140;-79
2022/09/22 01:07:10;;;;;;;4.50;2.90;;;;;;;7.57;100.00;99166.34;4494249;31;20169;-79
2022/09/22 01:09:37;;;;;;;4.78;2.90;;;;;;;7.57;100.00;99166.34;4484767;32;20127;-79
2022/09/22 01:12:04;;;;;;;4.97;2.80;;;;;;;7.59;100.00;99169.69;4486037;31;20192;-79
2022/09/22 01:14:58;;;;;;;5.03;2.70;;;;;;;7.59;100.00;99163.63;4484889;32;20155;-79
2022/09/22 01:17:55;;;;;;;3.42;2.60;;;;;;;7.59;100.00;99168.84;4436695;32;20217;-78
2022/09/22 01:21:00;;;;;;;4.43;2.80;;;;;;;7.54;100.00;99163.97;4423725;32;20184;-79
2022/09/22 01:23:30;;;;;;;4.37;2.58;;;;;;;7.48;100.00;99156.56;4436837;32;20120;-78
2022/09/22 01:26:01;;;;;;;3.72;2.33;;;;;;;7.41;100.00;99152.72;4436853;32;20279;-78
2022/09/22 01:28:43;;;;;;;3.35;2.45;;;;;;;7.31;100.00;99155.13;4424056;32;20129;-79
2022/09/22 01:31:10;;;;;;;4.35;2.37;;;;;;;7.24;100.00;99159.94;4436911;32;20555;-78
2022/09/22 01:33:46;;;;;;;3.90;2.75;;;;;;;7.15;100.00;99160.59;4436762;32;20109;-79
2022/09/22 01:36:35;;;;;;;5.07;2.30;;;;;;;7.10;100.00;99160.91;4424398;32;20160;-79
2022/09/22 01:39:13;;;;;;;5.55;2.80;;;;;;;7.07;100.00;99160.25;4424046;32;20930;-79
2022/09/22 01:41:59;;;;;;;3.80;2.60;;;;;;;7.09;100.00;99167.03;4434806;32;20117;-79
2022/09/22 01:44:36;;;;;;;10.00;3.28;;;;;;;7.10;100.00;99162.66;4439408;32;20117;-79
2022/09/22 01:47:20;;;;;;;6.22;3.33;;;;;;;7.07;100.00;99170.69;4439765;32;20145;-78
2022/09/22 01:49:52;;;;;;;7.90;3.85;;;;;;;7.02;100.00;99175.38;4439440;32;20311;-78
2022/09/22 01:52:22;;;;;;;4.72;2.75;;;;;;;7.04;100.00;99173.50;4439354;32;20697;-78
2022/09/22 01:54:54;;;;;;;6.00;3.45;;;;;;;7.05;100.00;99169.97;4481472;31;20095;-79
2022/09/22 01:57:38;;;;;;;5.05;3.10;;;;;;;7.05;100.00;99175.16;4501596;31;20429;-78
2022/09/22 02:00:07;;;;;;;6.93;3.53;;;;;;;7.04;100.00;99173.50;4500489;31;20450;-79
2022/09/22 02:03:08;;;;;;;8.68;3.78;;;;;;;7.03;100.00;99167.47;4500273;31;20530;-79
2022/09/22 02:05:43;;;;;;;7.22;3.60;;;;;;;6.98;100.00;99164.34;4423624;32;20157;-78
2022/09/22 02:08:16;;;;;;;7.65;3.87;;;;;;;7.02;100.00;99164.97;4409760;32;20643;-79
2022/09/22 02:10:45;;;;;;;5.87;3.90;;;;;;;7.03;100.00;99153.63;4408532;32;20110;-79
2022/09/22 02:13:13;;;;;;;5.60;3.83;;;;;;;7.00;100.00;99156.44;4421024;32;20165;-79
2022/09/22 02:16:00;;;;;;;6.82;3.40;;;;;;;7.05;100.00;99162.97;4421255;32;20102;-79
2022/09/22 02:18:52;;;;;;;10.43;3.47;;;;;;;7.09;100.00;99151.41;4421129;32;20427;-79
2022/09/22 02:21:20;;;;;;;6.22;3.40;;;;;;;7.19;100.00;99154.22;4420881;32;20426;-79
2022/09/22 02:23:48;;;;;;;6.53;3.85;;;;;;;7.27;100.00;99149.31;4420996;32;20440;-78
2022/09/22 02:26:22;;;;;;;5.07;3.33;;;;;;;7.32;100.00;99151.59;4420923;32;20173;-79
2022/09/22 02:29:14;;;;;;;5.10;3.15;;;;;;;7.32;100.00;99153.38;4420992;32;20082;-79
2022/09/22 02:31:41;;;;;;;6.28;3.75;;;;;;;7.35;100.00;99153.16;4421075;32;20513;-79
2022/09/22 02:34:08;;;;;;;4.37;2.72;;;;;;;7.31;100.00;99160.34;4408599;32;20870;-79
2022/09/22 02:36:53;;;;;;;7.87;3.47;;;;;;;7.26;100.00;99150.25;4408363;32;20456;-79
2022/09/22 02:39:21;;;;;;;5.75;3.05;;;;;;;7.31;100.00;99159.50;4408423;32;20625;-79
2022/09/22 02:44:48;;;;;;;5.12;3.08;;;;;;;7.32;100.00;99151.59;4501445;31;20100;-78
2022/09/22 02:47:21;;;;;;;5.97;3.05;;;;;;;7.37;100.00;99157.31;4501189;31;20107;-79
2022/09/22 02:49:48;;;;;;;7.03;3.17;;;;;;;7.36;100.00;99153.06;4499946;31;20461;-79
2022/09/22 02:52:19;;;;;;;5.62;3.40;;;;;;;7.25;100.00;99160.78;4499921;31;20139;-79
2022/09/22 02:54:46;;;;;;;6.70;3.03;;;;;;;7.12;100.00;99155.59;4500036;31;20088;-78
2022/09/22 02:57:13;;;;;;;5.07;3.05;;;;;;;7.13;100.00;99157.25;4501288;31;20114;-78
2022/09/22 02:59:40;;;;;;;4.05;2.80;;;;;;;7.10;100.00;99157.44;4501121;31;20560;-79
2022/09/22 03:02:07;;;;;;;5.32;3.12;;;;;;;7.21;100.00;99154.94;4501168;31;20096;-78
2022/09/22 03:04:34;;;;;;;4.25;2.75;;;;;;;7.24;100.00;99152.12;4500935;31;20559;-78
2022/09/22 03:07:03;;;;;;;4.78;2.55;;;;;;;7.25;100.00;99151.19;4494319;31;20200;-78
2022/09/22 03:09:30;;;;;;;3.87;2.20;;;;;;;7.27;100.00;99143.28;4485193;31;20128;-78
2022/09/22 03:11:57;;;;;;;3.92;2.58;;;;;;;7.27;100.00;99151.09;4485174;31;20085;-78
2022/09/22 03:14:24;;;;;;;3.58;2.53;;;;;;;7.27;100.00;99144.09;4485220;31;20127;-79
2022/09/22 03:16:51;;;;;;;5.28;2.65;;;;;;;7.24;100.00;99143.47;4485294;31;20114;-78
2022/09/22 03:19:18;;;;;;;5.93;2.65;;;;;;;7.18;100.00;99149.94;4485487;31;20511;-78
2022/09/22 03:21:45;;;;;;;5.70;3.47;;;;;;;7.05;100.00;99149.13;4485165;31;20093;-78
2022/09/22 03:24:12;;;;;;;5.47;3.58;;;;;;;6.96;100.00;99149.75;4484996;31;20573;-78
2022/09/22 03:26:40;;;;;;;6.22;3.20;;;;;;;6.86;100.00;99157.38;4485140;31;20092;-79
2022/09/22 03:29:07;;;;;;;6.05;3.83;;;;;;;6.80;100.00;99156.00;4485031;31;20216;-79
2022/09/22 03:31:34;;;;;;;6.15;4.00;;;;;;;6.78;100.00;99157.88;4485075;31;20096;-78
2022/09/22 03:34:01;;;;;;;6.47;3.87;;;;;;;6.71;100.00;99156.63;4485159;31;20105;-79
2022/09/22 03:36:28;;;;;;;5.07;3.37;;;;;;;6.65;100.00;99159.66;4484870;31;20492;-78
2022/09/22 03:38:56;;;;;;;5.45;3.60;;;;;;;6.67;100.00;99155.16;4484841;31;20668;-79
2022/09/22 03:41:23;;;;;;;6.18;3.55;;;;;;;6.63;100.00;99151.94;4493957;31;20104;-78
2022/09/22 03:43:50;;;;;;;6.32;3.55;;;;;;;6.60;100.00;99157.34;4500720;31;20534;-79
2022/09/22 03:46:17;;;;;;;6.47;3.58;;;;;;;6.62;100.00;99152.03;4500846;31;20106;-79
2022/09/22 03:48:44;;;;;;;6.90;3.83;;;;;;;6.61;100.00;99153.78;4500718;31;20108;-78
2022/09/22 03:51:12;;;;;;;7.05;3.50;;;;;;;6.62;100.00;99152.03;4500694;31;20124;-78
2022/09/22 03:53:39;;;;;;;6.70;3.78;;;;;;;6.63;100.00;99143.28;4500840;31;20183;-78
2022/09/22 03:56:08;;;;;;;5.28;2.90;;;;;;;6.63;100.00;99144.12;4500625;31;20505;-78
2022/09/22 03:58:36;;;;;;;4.95;3.25;;;;;;;6.61;100.00;99139.94;4500817;31;20096;-79
2022/09/22 04:01:04;;;;;;;6.30;3.15;;;;;;;6.61;100.00;99142.56;4500631;31;20159;-78
2022/09/22 04:03:33;;;;;;;6.90;3.03;;;;;;;6.67;100.00;99139.53;4500514;31;20093;-79
2022/09/22 04:06:00;;;;;;;7.05;3.20;;;;;;;6.71;100.00;99138.41;4500327;31;20092;-79
2022/09/22 04:08:27;;;;;;;5.60;3.30;;;;;;;6.76;100.00;99144.12;4484683;31;20119;-79
2022/09/22 04:10:56;;;;;;;7.32;3.15;;;;;;;6.79;100.00;99141.31;4484463;32;20187;-79
2022/09/22 04:13:23;;;;;;;5.22;3.28;;;;;;;6.77;100.00;99144.94;4484687;31;20111;-80
2022/09/22 04:15:50;;;;;;;6.45;3.50;;;;;;;6.70;100.00;99139.34;4484329;32;20096;-76
2022/09/22 04:18:17;;;;;;;7.00;3.60;;;;;;;6.72;100.00;99145.25;4484042;31;20149;-75
2022/09/22 04:20:44;;;;;;;7.18;3.45;;;;;;;6.69;100.00;99146.31;4483198;32;20089;-79
2022/09/22 04:23:13;;;;;;;9.68;3.40;;;;;;;6.66;100.00;99148.28;4484477;32;20262;-80
2022/09/22 04:25:49;;;;;;;6.03;3.42;;;;;;;6.65;100.00;99141.44;4481737;31;20205;-76
2022/09/22 04:28:21;;;;;;;7.90;3.55;;;;;;;6.59;100.00;99152.25;4469211;32;20092;-76
2022/09/22 04:30:49;;;;;;;6.35;3.45;;;;;;;6.60;100.00;99153.91;4483935;31;20157;-76
2022/09/22 04:33:16;;;;;;;9.77;3.78;;;;;;;6.52;100.00;99152.63;4486131;31;20124;-77
2022/09/22 04:35:44;;;;;;;6.18;3.55;;;;;;;6.54;100.00;99155.97;4498672;31;20167;-79
2022/09/22 04:38:12;;;;;;;6.05;3.22;;;;;;;6.58;100.00;99159.19;4499868;31;20116;-79
2022/09/22 04:40:39;;;;;;;6.12;3.67;;;;;;;6.56;100.00;99161.09;4488957;31;20092;-77
2022/09/22 04:43:07;;;;;;;6.53;3.90;;;;;;;6.52;100.00;99157.84;4492338;31;20104;-79
2022/09/22 04:45:34;;;;;;;6.57;3.95;;;;;;;6.53;100.00;99158.69;4498283;31;20132;-78
2022/09/22 04:48:06;;;;;;;7.32;3.72;;;;;;;6.62;100.00;99162.47;4491941;31;20092;-79
2022/09/22 04:50:33;;;;;;;7.97;4.32;;;;;;;6.66;100.00;99158.69;4492720;31;20105;-78
2022/09/22 04:53:01;;;;;;;6.68;3.75;;;;;;;6.65;100.00;99159.66;4498929;31;20205;-78
2022/09/22 04:55:28;;;;;;;9.88;3.72;;;;;;;6.68;100.00;99162.03;4499737;31;20556;-78
2022/09/22 04:57:56;;;;;;;6.75;3.80;;;;;;;6.72;100.00;99155.66;4491427;31;20105;-79
2022/09/22 05:00:25;;;;;;;7.80;3.65;;;;;;;6.75;100.00;99155.47;4487581;31;20096;-77
2022/09/22 05:03:14;;;;;;;5.57;3.05;;;;;;;6.77;100.00;99160.56;4488794;31;20103;-78
2022/09/22 05:05:48;;;;;;;5.95;3.40;;;;;;;6.80;100.00;99158.62;4493291;31;20103;-80
2022/09/22 05:08:15;;;;;;;7.87;3.40;;;;;;;6.87;100.00;99157.28;4488937;31;20096;-78
2022/09/22 05:10:43;;;;;;;7.20;4.30;;;;;;;6.92;100.00;99151.75;4491158;31;20096;-79
2022/09/22 05:13:11;;;;;;;5.68;3.70;;;;;;;7.00;100.00;99151.22;4490950;31;20120;-79
2022/09/22 05:15:39;;;;;;;6.87;3.90;;;;;;;7.06;100.00;99150.78;4491662;31;20110;-79
2022/09/22 05:18:07;;;;;;;7.45;4.00;;;;;;;7.20;100.00;99150.66;4488939;31;20152;-79
2022/09/22 05:20:35;;;;;;;6.80;3.80;;;;;;;7.23;100.00;99155.66;4486294;31;20450;-79
2022/09/22 05:23:02;;;;;;;5.10;3.55;;;;;;;7.27;100.00;99154.53;4495043;31;20103;-80
2022/09/22 05:25:29;;;;;;;5.87;3.80;;;;;;;7.34;100.00;99148.88;4491701;31;20096;-80
2022/09/22 05:27:56;;;;;;;6.40;3.72;;;;;;;7.41;100.00;99150.13;4485046;31;20123;-80
2022/09/22 05:30:25;;;;;;;5.78;3.50;;;;;;;7.52;100.00;99150.19;4494733;31;20104;-80
2022/09/22 05:32:52;;;;;;;5.97;3.78;;;;;;;7.66;100.00;99151.00;4492449;31;20485;-79
2022/09/22 05:35:21;;;;;;;5.57;3.37;;;;;;;7.73;100.00;99150.44;4490887;31;20108;-80
2022/09/22 05:37:50;;;;;;;6.05;3.65;;;;;;;7.85;100.00;99147.91;4492138;31;20130;-79
2022/09/22 05:40:18;;;;;;;5.03;3.45;;;;;;;7.96;100.00;99156.63;4490957;31;20116;-80
2022/09/22 05:42:50;;;;;;;4.62;3.20;;;;;;;8.09;100.00;99155.75;4474669;31;20230;-80
2022/09/22 05:45:18;;;;;;;6.28;3.08;;;;;;;8.25;100.00;99160.66;4489287;31;20821;-80
2022/09/22 05:47:45;;;;;;;7.43;3.47;;;;;;;8.35;100.00;99165.09;4496987;31;20119;-78
2022/09/22 05:50:14;;;;;;;5.15;3.20;;;;;;;8.49;100.00;99163.25;4498771;31;20096;-77
2022/09/22 05:52:42;;;;;;;5.45;3.33;;;;;;;8.62;100.00;99166.62;4488462;31;20104;-76
2022/09/22 05:55:12;;;;;;;4.22;2.78;;;;;;;8.76;100.00;99167.38;4490348;31;20104;-77
2022/09/22 05:57:59;;;;;;;6.15;3.55;;;;;;;8.94;100.00;99167.78;4472971;31;20096;-80
2022/09/22 06:00:27;;;;;;;4.65;2.97;;;;;;;8.97;100.00;99167.53;4494784;31;20470;-81
2022/09/22 06:02:55;;;;;;;4.50;2.53;;;;;;;9.05;100.00;99167.75;4498187;31;20084;-80
2022/09/22 06:05:22;;;;;;;4.65;2.60;;;;;;;9.19;100.00;99172.78;4495761;31;20099;-80
2022/09/22 06:08:02;;;;;;;4.00;2.90;;;;;;;9.28;100.00;99173.00;4499409;31;20159;-82
2022/09/22 06:10:30;;;;;;;2.50;2.10;;;;;;;9.37;100.00;99174.91;4498218;31;20122;-82
2022/09/22 06:13:01;;;;;;;4.20;3.05;;;;;;;9.53;100.00;99170.16;4489592;31;20155;-88
2022/09/22 06:15:30;;;;;;;4.45;2.75;;;;;;;9.61;100.00;99179.19;4495287;31;20163;-84
2022/09/22 06:17:57;;;;;;;5.75;3.20;;;;;;;9.55;100.00;99189.19;4494524;31;20194;-84
2022/09/22 06:20:24;;;;;;;3.78;2.87;;;;;;;9.57;100.00;99181.22;4491532;31;20123;-84
2022/09/22 06:22:52;;;;;;;3.95;2.95;;;;;;;9.59;100.00;99181.91;4498108;31;20112;-81
2022/09/22 06:25:20;;;;;;;4.20;3.00;;;;;;;9.62;100.00;99180.84;4494761;31;20472;-82
2022/09/22 06:27:47;;;;;;;5.00;2.87;;;;;;;9.68;100.00;99181.19;4498352;31;20457;-80
2022/09/22 06:30:14;;;;;;;4.75;2.80;;;;;;;9.88;100.00;99189.25;4493789;31;20164;-82
2022/09/22 06:32:42;;;;;;;5.70;3.25;;;;;;;9.90;100.00;99184.72;4484721;31;20115;-82
2022/09/22 06:35:10;;;;;;;4.70;2.85;;;;;;;9.90;100.00;99182.94;4496974;31;20159;-81
2022/09/22 06:37:37;;;;;;;4.62;3.33;;;;;;;9.90;100.00;99184.72;4495323;31;20088;-81
2022/09/22 06:40:07;;;;;;;5.05;3.60;;;;;;;9.95;100.00;99183.41;4497573;31;20092;-82
2022/09/22 06:42:35;;;;;;;5.00;3.00;;;;;;;10.06;100.00;99184.31;4500590;31;20113;-86
2022/09/22 06:45:03;;;;;;;5.72;3.75;;;;;;;10.30;100.00;99181.50;4497777;31;20578;-81
2022/09/22 06:47:31;;;;;;;5.53;3.55;;;;;;;10.28;100.00;99192.09;4499271;31;20112;-86
2022/09/22 06:50:01;;;;;;;4.10;2.92;;;;;;;10.36;100.00;99188.06;4498573;31;20136;-87
2022/09/22 06:52:28;;;;;;;7.03;4.03;;;;;;;10.38;100.00;99180.91;4493167;31;20147;-89
2022/09/22 06:54:57;;;;;;;6.87;3.95;;;;;;;10.51;100.00;99185.94;4495877;31;20103;-80
2022/09/22 06:57:31;;;;;;;5.57;3.30;;;;;;;10.55;100.00;99187.38;4500647;31;20123;-81
2022/09/22 06:59:59;;;;;;;5.03;3.37;;;;;;;10.55;100.00;99183.00;4499478;31;20150;-79
2022/09/22 07:02:28;;;;;;;8.48;3.62;;;;;;;10.44;100.00;99201.34;4496038;31;20087;-82
2022/09/22 07:04:59;;;;;;;6.12;3.90;;;;;;;10.41;100.00;99197.19;4496041;31;20121;-80
2022/09/22 07:07:27;;;;;;;7.85;3.42;;;;;;;10.41;100.00;99191.13;4495201;31;20198;-79
2022/09/22 07:09:55;;;;;;;5.15;3.10;;;;;;;10.42;100.00;99184.94;4499730;31;20107;-76
2022/09/22 07:12:24;;;;;;;5.37;3.65;;;;;;;10.65;100.00;99193.53;4499700;31;20100;-79
2022/09/22 07:14:55;;;;;;;4.97;3.87;;;;;;;10.76;100.00;99195.25;4500573;31;20084;-82
2022/09/22 07:17:22;;;;;;;5.90;3.12;;;;;;;10.78;100.00;99188.94;4499744;31;20223;-79
2022/09/22 07:19:50;;;;;;;5.62;3.47;;;;;;;10.79;100.00;99189.75;4500792;31;20100;-79
2022/09/22 07:22:18;;;;;;;6.68;3.50;;;;;;;10.91;100.00;99193.13;4500576;31;20135;-79
2022/09/22 07:24:45;;;;;;;6.62;3.58;;;;;;;11.00;100.00;99197.59;4499252;31;20107;-76
2022/09/22 07:27:24;;;;;;;5.30;3.60;;;;;;;10.94;100.00;99191.06;4499635;31;20096;-78
2022/09/22 07:29:53;;;;;;;8.15;3.67;;;;;;;10.85;100.00;99194.47;4499171;31;20119;-79
2022/09/22 07:32:20;;;;;;;5.43;3.50;;;;;;;10.95;100.00;99198.00;4499302;31;20930;-78
2022/09/22 07:34:48;;;;;;;5.12;3.80;;;;;;;10.81;100.00;99193.91;4497759;31;20111;-77
2022/09/22 07:37:15;;;;;;;5.03;3.42;;;;;;;10.90;100.00;99188.84;4498266;31;20449;-76
2022/09/22 07:39:44;;;;;;;7.47;3.85;;;;;;;11.05;100.00;99190.16;4499657;31;20490;-77
2022/09/22 07:42:11;;;;;;;6.55;3.90;;;;;;;10.94;100.00;99198.13;4498350;31;20125;-77
2022/09/22 07:50:10;;;;;;;5.00;3.67;;;;;;;10.63;100.00;99205.94;4497231;31;20160;-77
2022/09/22 07:52:37;;;;;;;6.15;3.75;;;;;;;10.55;100.00;99208.34;4497391;31;20156;-76
2022/09/22 07:55:05;;;;;;;6.80;3.80;;;;;;;10.77;100.00;99202.16;4498215;31;20113;-76
2022/09/22 07:57:32;;;;;;;5.60;3.65;;;;;;;11.06;100.00;99206.75;4496314;31;20119;-78
2022/09/22 08:00:00;;;;;;;3.95;2.80;;;;;;;11.25;100.00;99200.75;4498220;31;20426;-79
2022/09/22 08:02:27;;;;;;;4.40;3.08;;;;;;;11.39;100.00;99200.44;4485815;31;20117;-77
2022/09/22 08:04:58;;;;;;;4.65;3.45;;;;;;;11.25;99.71;99206.00;4499097;31;20162;-76
2022/09/22 08:07:26;;;;;;;4.43;3.25;;;;;;;11.40;100.00;99196.84;4498037;31;20084;-76
2022/09/22 08:09:53;;;;;;;6.15;3.58;;;;;;;11.50;97.82;99202.94;4496798;31;20176;-76
2022/09/22 08:12:20;;;;;;;6.85;3.40;;;;;;;11.65;97.66;99210.47;4487571;31;20156;-79
2022/09/22 08:14:48;;;;;;;6.00;3.97;;;;;;;11.78;97.09;99203.19;4485968;31;20159;-78
2022/09/22 08:17:15;;;;;;;4.20;3.12;;;;;;;11.86;95.41;99213.84;4498089;31;20442;-76
2022/09/22 08:19:42;;;;;;;5.18;3.37;;;;;;;11.90;95.16;99210.00;4495005;31;20162;-76
2022/09/22 08:22:09;;;;;;;5.68;3.92;;;;;;;11.76;97.27;99220.84;4490608;31;20096;-76
2022/09/22 08:24:36;;;;;;;7.37;3.78;;;;;;;11.61;98.16;99209.91;4495237;31;20096;-80
2022/09/22 08:27:04;;;;;;;4.37;3.42;;;;;;;11.77;97.13;99205.94;4495552;31;21116;-76
2022/09/22 08:29:31;;;;;;;6.62;3.95;;;;;;;11.89;96.83;99207.50;4500043;31;20093;-79
2022/09/22 08:31:58;;;;;;;4.18;3.42;;;;;;;12.14;98.11;99214.09;4494807;31;20148;-76
2022/09/22 08:34:25;;;;;;;5.95;3.55;;;;;;;12.12;94.45;99212.56;4492294;31;20556;-76
2022/09/22 08:36:54;;;;;;;8.93;3.78;;;;;;;12.34;93.30;99214.06;4492445;31;20126;-77
2022/09/22 08:39:21;;;;;;;5.70;3.45;;;;;;;12.26;90.67;99206.88;4493608;31;20854;-82
2022/09/22 08:42:08;;;;;;;6.25;4.43;;;;;;;12.16;90.42;99204.25;4480713;31;20167;-80
2022/09/22 08:44:53;;;;;;;5.10;4.10;;;;;;;12.22;91.22;99214.22;4479991;31;20144;-74
2022/09/22 08:53:18;;;;;;;4.60;3.10;;;;;;;12.55;88.02;99206.06;4487423;31;20107;-74
2022/09/22 08:55:51;;;;;;;14.48;3.87;;;;;;;12.70;87.39;99203.84;4496752;31;20514;-74
2022/09/22 08:58:31;;;;;;;4.00;2.90;;;;;;;12.98;86.49;99207.41;4489219;31;20165;-78
2022/09/22 09:01:37;;;;;;;3.50;2.50;;;;;;;13.07;84.68;99201.28;4491581;31;20140;-78
2022/09/22 09:04:23;;;;;;;4.40;2.95;;;;;;;13.31;81.44;99202.63;4412860;32;20093;-77
2022/09/22 09:07:15;;;;;;;4.47;2.92;;;;;;;13.53;81.99;99201.44;4433751;32;20120;-77
2022/09/22 09:09:54;;;;;;;3.50;2.60;;;;;;;13.53;81.49;99206.69;4413023;32;20113;-78
2022/09/22 09:12:53;;;;;;;4.40;2.97;;;;;;;13.39;81.17;99199.28;4415002;32;20259;-77
2022/09/22 09:15:32;;;;;;;6.05;3.37;;;;;;;13.54;82.11;99210.19;4429295;32;20117;-77
2022/09/22 09:18:05;;;;;;;4.80;2.75;;;;;;;13.57;80.34;99207.25;4418219;32;20625;-76
2022/09/22 09:20:39;;;;;;;4.30;2.78;;;;;;;13.76;80.55;99206.31;4430125;32;20109;-77
2022/09/22 09:23:25;;;;;;;3.33;2.35;;;;;;;13.84;77.69;99209.06;4432572;32;20161;-77
2022/09/22 09:26:14;;;;;;;5.07;2.78;;;;;;;13.86;74.09;99193.09;4422678;32;20277;-77
2022/09/22 09:28:44;;;;;;;3.70;2.80;;;;;;;13.99;74.89;99202.31;4433499;32;20135;-78
2022/09/22 09:31:47;;;;;;;4.60;2.47;;;;;;;14.32;79.33;99193.87;4421686;32;20353;-77
2022/09/22 09:34:16;;;;;;;4.37;3.10;;;;;;;14.71;78.37;99204.12;4429692;32;20551;-77
2022/09/22 09:36:47;;;;;;;2.75;2.00;;;;;;;14.93;77.51;99205.47;4428881;32;20101;-77
2022/09/22 09:39:28;;;;;;;3.37;1.95;;;;;;;14.82;71.22;99201.28;4415343;32;20105;-79
2022/09/22 09:41:56;;;;;;;3.17;2.33;;;;;;;14.87;72.60;99201.63;4489521;31;20588;-80
2022/09/22 09:44:30;;;;;;;2.83;1.90;;;;;;;14.92;71.14;99209.06;4491568;31;20124;-79
2022/09/22 09:47:18;;;;;;;3.85;2.12;;;;;;;14.83;71.00;99204.72;4498895;31;20173;-76
2022/09/22 09:49:46;;;;;;;3.00;1.98;;;;;;;14.68;68.84;99200.00;4494965;31;20145;-77
2022/09/22 09:52:19;;;;;;;2.47;1.90;;;;;;;14.81;69.14;99204.88;4497149;31;20152;-79
2022/09/22 09:54:47;;;;;;;2.80;1.95;;;;;;;14.53;67.81;99193.56;4490766;31;20104;-76
2022/09/22 09:57:16;;;;;;;2.50;1.80;;;;;;;14.53;69.02;99199.69;4486821;31;20099;-79
2022/09/22 10:02:48;;;;;;;4.90;2.00;;;;;;;14.79;71.82;99198.94;4494845;31;20136;-80
2022/09/22 10:05:15;;;;;;;2.60;2.20;;;;;;;14.98;70.79;99202.38;4484489;31;20080;-76
2022/09/22 10:07:44;;;;;;;2.25;1.77;;;;;;;15.08;74.90;99203.91;4493209;31;20107;-79
2022/09/22 10:10:36;;;;;;;3.50;2.17;;;;;;;15.24;64.77;99197.88;4498110;31;20426;-77
2022/09/22 10:13:03;;;;;;;2.65;1.83;;;;;;;15.12;70.52;99201.78;4492051;31;20699;-79
2022/09/22 10:15:36;;;;;;;1.98;1.60;;;;;;;15.46;69.75;99205.44;4494868;31;20116;-79
2022/09/22 10:18:25;;;;;;;2.70;1.97;;;;;;;15.21;67.19;99208.75;4486319;31;20160;-78
2022/09/22 10:21:22;;;;;;;3.97;2.20;;;;;;;14.92;67.06;99206.44;4493850;31;20120;-79
2022/09/22 10:23:54;;;;;;;3.90;2.40;;;;;;;14.43;71.36;99198.09;4497604;31;20146;-75
2022/09/22 10:26:26;;;;;;;2.62;2.25;;;;;;;14.12;72.76;99201.13;4494991;31;20138;-76
2022/09/22 10:29:18;;;;;;;3.65;2.30;;;;;;;14.14;73.83;99204.41;4480311;31;20092;-78
2022/09/22 10:32:02;;;;;;;3.20;2.47;;;;;;;14.33;72.49;99203.47;4490398;31;20135;-73
2022/09/22 10:34:36;;;;;;;2.95;2.12;;;;;;;14.45;70.92;99209.34;4486473;31;20147;-74
2022/09/22 10:37:09;;;;;;;3.47;2.10;;;;;;;14.80;70.04;99205.03;4499481;31;20089;-74
2022/09/22 10:39:43;;;;;;;2.75;1.98;;;;;;;14.93;65.76;99196.72;4483471;31;20104;-74
2022/09/22 10:42:35;;;;;;;2.67;1.95;;;;;;;15.10;66.78;99200.31;4493472;31;20171;-74
2022/09/22 10:45:07;;;;;;;1.70;1.52;;;;;;;15.21;67.04;99205.31;4492570;31;20117;-74
2022/09/22 10:48:02;;;;;;;2.95;1.90;;;;;;;15.45;62.60;99194.03;4482760;31;20844;-73
2022/09/22 10:50:59;;;;;;;2.20;1.55;;;;;;;15.64;67.09;99192.13;4495274;31;20200;-74
2022/09/22 10:53:55;;;;;;;3.97;1.95;;;;;;;15.74;63.52;99185.72;4489630;31;20100;-76
2022/09/22 10:56:41;;;;;;;3.10;1.52;;;;;;;15.58;61.89;99185.69;4487408;31;20130;-76
2022/09/22 10:59:17;;;;;;;2.08;1.50;;;;;;;15.49;63.33;99178.69;4485413;31;20112;-75
2022/09/22 11:01:50;;;;;;;2.42;1.80;;;;;;;15.21;62.09;99189.47;4486033;31;20159;-74
2022/09/22 11:04:32;;;;;;;2.10;1.90;;;;;;;15.27;62.81;99178.28;4490275;31;20111;-74
2022/09/22 11:13:24;;;;;;;2.65;1.80;;;;;;;15.32;63.35;99172.53;4431998;32;20159;-75
2022/09/22 11:16:13;;;;;;;2.78;2.20;;;;;;;15.42;63.53;99157.41;4432355;32;20089;-75
2022/09/22 11:18:48;;;;;;;4.00;2.25;;;;;;;15.63;65.37;99161.44;4431273;32;20312;-76
2022/09/22 11:21:57;;;;;;;2.08;1.67;;;;;;;15.64;62.99;99160.44;4431132;32;20155;-76
2022/09/22 11:24:43;;;;;;;2.28;1.55;;;;;;;15.51;61.29;99156.44;4390757;32;20118;-76
2022/09/22 11:27:55;;;;;;;2.33;1.83;;;;;;;15.38;60.40;99156.06;4398014;32;20582;-76
2022/09/22 11:30:22;;;;;;;2.08;1.40;;;;;;;15.59;61.91;99153.00;4389241;32;20131;-74
2022/09/22 11:33:08;;;;;;;1.92;1.60;;;;;;;15.77;62.29;99143.19;4388796;32;20152;-76
2022/09/22 11:35:49;;;;;;;3.95;1.77;;;;;;;15.70;57.16;99144.81;4373740;32;20163;-75
2022/09/22 11:38:16;;;;;;;1.65;1.55;;;;;;;15.83;60.12;99147.00;4380589;32;20671;-75
2022/09/22 11:41:13;;;;;;;4.60;2.00;;;;;;;16.05;59.04;99132.34;4389120;32;20102;-76
2022/09/22 11:43:53;;;;;;;4.35;1.98;;;;;;;16.34;58.65;99131.03;4373299;32;20103;-76
2022/09/22 11:46:30;;;;;;;4.78;1.90;;;;;;;16.19;58.30;99133.50;4385200;32;20110;-76
2022/09/22 11:49:22;;;;;;;1.95;1.58;;;;;;;16.21;60.58;99126.22;4381519;32;20579;-75
2022/09/22 11:52:32;;;;;;;2.28;1.62;;;;;;;16.34;56.13;99115.19;4431988;32;20677;-74
2022/09/22 11:55:05;;;;;;;2.20;1.70;;;;;;;16.30;54.62;99122.59;4399049;32;20113;-74
2022/09/22 11:57:39;;;;;;;1.55;1.45;;;;;;;16.31;55.15;99120.81;4402443;32;20164;-74
2022/09/22 12:00:18;;;;;;;1.90;1.40;;;;;;;16.16;53.21;99107.41;4389996;32;20130;-74
2022/09/22 12:02:55;;;;;;;3.30;1.50;;;;;;;16.56;52.57;99107.56;4418453;32;20506;-75
2022/09/22 12:05:41;;;;;;;2.40;1.40;;;;;;;16.70;52.67;99109.53;4425090;32;20140;-76
2022/09/22 12:08:15;;;;;;;1.98;1.30;;;;;;;16.83;49.93;99101.06;4406879;32;20114;-75
2022/09/22 12:10:43;;;;;;;2.40;2.00;;;;;;;16.90;52.01;99101.25;4414281;32;20102;-73
2022/09/22 12:13:21;;;;;;;2.25;1.55;;;;;;;16.68;51.92;99103.56;4417637;32;20093;-74
2022/09/22 12:16:00;;;;;;;1.65;1.50;;;;;;;17.00;52.02;99089.47;4416801;32;20189;-74
2022/09/22 12:18:38;;;;;;;2.72;1.45;;;;;;;17.02;54.16;99089.28;4403935;32;20168;-74
2022/09/22 12:21:30;;;;;;;1.45;1.30;;;;;;;17.45;51.02;99087.09;4416550;32;20209;-75
2022/09/22 12:24:00;;;;;;;1.25;1.15;;;;;;;17.16;49.10;99103.63;4397208;32;20491;-74